sensor_id;sensor_type;location;lat;lon;timestamp;pressure;altitude;pressure_sealevel;temperature;humidity
35307;BME280;21420;52.196;21.416;2023-03-26T00:01:28;98967.63;;;6.18;68.56
35307;BME280;21420;52.196;21.416;2023-03-26T00:03:59;98962.05;;;6.21;68.62
35307;BME280;21420;52.196;21.416;2023-03-26T00:06:32;98960.11;;;6.24;68.72
35307;BME280;21420;52.196;21.416;2023-03-26T00:09:03;98959.66;;;6.27;68.59
35307;BME280;21420;52.196;21.416;2023-03-26T00:11:30;98962.55;;;6.30;68.71
35307;BME280;21420;52.196;21.416;2023-03-26T00:13:57;98960.08;;;6.33;68.74
35307;BME280;21420;52.196;21.416;2023-03-26T00:16:27;98959.94;;;6.36;68.81
35307;BME280;21420;52.196;21.416;2023-03-26T00:18:55;98960.23;;;6.38;68.77
35307;BME280;21420;52.196;21.416;2023-03-26T00:21:25;98954.48;;;6.41;68.79
35307;BME280;21420;52.196;21.416;2023-03-26T00:24:07;98956.53;;;6.44;68.74
35307;BME280;21420;52.196;21.416;2023-03-26T00:26:36;98958.70;;;6.46;68.80
35307;BME280;21420;52.196;21.416;2023-03-26T00:29:04;98959.32;;;6.47;68.83
35307;BME280;21420;52.196;21.416;2023-03-26T00:31:33;98957.46;;;6.47;68.72
35307;BME280;21420;52.196;21.416;2023-03-26T00:34:00;98954.61;;;6.48;68.85
35307;BME280;21420;52.196;21.416;2023-03-26T00:36:29;98951.89;;;6.48;68.74
35307;BME280;21420;52.196;21.416;2023-03-26T00:38:56;98950.26;;;6.48;68.88
35307;BME280;21420;52.196;21.416;2023-03-26T00:41:24;98946.86;;;6.48;68.86
35307;BME280;21420;52.196;21.416;2023-03-26T00:43:55;98943.23;;;6.49;68.91
35307;BME280;21420;52.196;21.416;2023-03-26T00:46:23;98939.23;;;6.48;68.92
35307;BME280;21420;52.196;21.416;2023-03-26T00:48:52;98935.27;;;6.45;68.99
35307;BME280;21420;52.196;21.416;2023-03-26T00:51:20;98938.33;;;6.41;68.92
35307;BME280;21420;52.196;21.416;2023-03-26T00:53:48;98935.38;;;6.33;68.75
35307;BME280;21420;52.196;21.416;2023-03-26T00:56:16;98931.80;;;6.25;68.67
35307;BME280;21420;52.196;21.416;2023-03-26T00:58:44;98929.47;;;6.17;68.67
35307;BME280;21420;52.196;21.416;2023-03-26T01:01:15;98931.48;;;6.07;68.70
35307;BME280;21420;52.196;21.416;2023-03-26T01:03:43;98930.64;;;5.96;68.58
35307;BME280;21420;52.196;21.416;2023-03-26T01:06:33;98927.52;;;5.86;68.66
35307;BME280;21420;52.196;21.416;2023-03-26T01:09:13;98925.55;;;5.77;68.61
35307;BME280;21420;52.196;21.416;2023-03-26T01:11:42;98923.95;;;5.69;68.64
35307;BME280;21420;52.196;21.416;2023-03-26T01:14:22;98924.21;;;5.63;68.71
35307;BME280;21420;52.196;21.416;2023-03-26T01:16:56;98926.48;;;5.58;68.85
35307;BME280;21420;52.196;21.416;2023-03-26T01:22:23;98926.89;;;5.50;69.00
35307;BME280;21420;52.196;21.416;2023-03-26T01:24:51;98929.71;;;5.46;69.04
35307;BME280;21420;52.196;21.416;2023-03-26T01:30:42;98924.06;;;5.37;68.96
35307;BME280;21420;52.196;21.416;2023-03-26T01:36:06;98919.00;;;5.30;69.10
35307;BME280;21420;52.196;21.416;2023-03-26T01:46:38;98909.13;;;5.19;69.34
35307;BME280;21420;52.196;21.416;2023-03-26T01:49:06;98908.21;;;5.18;69.35
35307;BME280;21420;52.196;21.416;2023-03-26T01:51:41;98906.86;;;5.17;69.46
35307;BME280;21420;52.196;21.416;2023-03-26T01:54:13;98904.98;;;5.16;69.29
35307;BME280;21420;52.196;21.416;2023-03-26T02:02:36;98901.30;;;5.13;69.50
35307;BME280;21420;52.196;21.416;2023-03-26T02:07:53;98892.36;;;5.10;69.46
35307;BME280;21420;52.196;21.416;2023-03-26T02:10:35;98902.02;;;5.09;69.61
35307;BME280;21420;52.196;21.416;2023-03-26T02:13:05;98899.95;;;5.08;69.52
35307;BME280;21420;52.196;21.416;2023-03-26T02:18:46;98894.39;;;5.06;69.56
35307;BME280;21420;52.196;21.416;2023-03-26T02:21:18;98893.23;;;5.06;69.58
35307;BME280;21420;52.196;21.416;2023-03-26T02:23:49;98886.06;;;5.08;69.59
35307;BME280;21420;52.196;21.416;2023-03-26T02:26:23;98880.79;;;5.09;69.62
35307;BME280;21420;52.196;21.416;2023-03-26T02:28:55;98883.08;;;5.13;69.66
35307;BME280;21420;52.196;21.416;2023-03-26T02:31:23;98884.83;;;5.17;69.73
35307;BME280;21420;52.196;21.416;2023-03-26T02:33:53;98883.92;;;5.20;69.51
35307;BME280;21420;52.196;21.416;2023-03-26T02:36:22;98881.63;;;5.23;69.61
35307;BME280;21420;52.196;21.416;2023-03-26T02:38:55;98883.54;;;5.27;69.69
35307;BME280;21420;52.196;21.416;2023-03-26T02:41:23;98882.75;;;5.31;69.69
35307;BME280;21420;52.196;21.416;2023-03-26T02:44:03;98882.67;;;5.36;69.77
35307;BME280;21420;52.196;21.416;2023-03-26T02:46:52;98880.66;;;5.40;69.81
35307;BME280;21420;52.196;21.416;2023-03-26T02:49:34;98876.44;;;5.47;69.92
35307;BME280;21420;52.196;21.416;2023-03-26T02:52:01;98874.20;;;5.49;69.88
35307;BME280;21420;52.196;21.416;2023-03-26T02:54:33;98874.45;;;5.52;69.90
35307;BME280;21420;52.196;21.416;2023-03-26T02:57:11;98878.44;;;5.55;69.90
35307;BME280;21420;52.196;21.416;2023-03-26T02:59:41;98876.16;;;5.58;69.86
35307;BME280;21420;52.196;21.416;2023-03-26T03:02:27;98878.98;;;5.60;69.87
35307;BME280;21420;52.196;21.416;2023-03-26T03:05:00;98876.77;;;5.61;69.82
35307;BME280;21420;52.196;21.416;2023-03-26T03:07:30;98883.23;;;5.62;69.80
35307;BME280;21420;52.196;21.416;2023-03-26T03:09:58;98884.73;;;5.63;69.86
35307;BME280;21420;52.196;21.416;2023-03-26T03:12:57;98886.38;;;5.61;69.87
35307;BME280;21420;52.196;21.416;2023-03-26T03:15:25;98891.05;;;5.59;69.78
35307;BME280;21420;52.196;21.416;2023-03-26T03:17:52;98894.77;;;5.59;69.87
35307;BME280;21420;52.196;21.416;2023-03-26T03:20:20;98894.27;;;5.60;69.85
35307;BME280;21420;52.196;21.416;2023-03-26T03:22:47;98896.69;;;5.60;69.85
35307;BME280;21420;52.196;21.416;2023-03-26T03:25:15;98895.86;;;5.62;69.86
35307;BME280;21420;52.196;21.416;2023-03-26T03:27:43;98897.79;;;5.63;69.82
35307;BME280;21420;52.196;21.416;2023-03-26T03:30:13;98902.10;;;5.67;69.85
35307;BME280;21420;52.196;21.416;2023-03-26T03:32:58;98904.95;;;5.72;69.93
35307;BME280;21420;52.196;21.416;2023-03-26T03:35:28;98909.02;;;5.75;69.91
35307;BME280;21420;52.196;21.416;2023-03-26T03:37:58;98909.16;;;5.77;69.93
35307;BME280;21420;52.196;21.416;2023-03-26T03:40:26;98912.64;;;5.79;69.97
35307;BME280;21420;52.196;21.416;2023-03-26T03:42:53;98910.20;;;5.80;69.98
35307;BME280;21420;52.196;21.416;2023-03-26T03:45:27;98908.61;;;5.82;69.96
35307;BME280;21420;52.196;21.416;2023-03-26T03:48:12;98908.44;;;5.84;69.95
35307;BME280;21420;52.196;21.416;2023-03-26T03:50:42;98907.59;;;5.87;70.04
35307;BME280;21420;52.196;21.416;2023-03-26T03:53:21;98906.77;;;5.90;70.08
35307;BME280;21420;52.196;21.416;2023-03-26T03:55:54;98904.99;;;5.93;70.03
35307;BME280;21420;52.196;21.416;2023-03-26T03:58:25;98908.48;;;5.94;69.99
35307;BME280;21420;52.196;21.416;2023-03-26T04:00:57;98902.27;;;5.96;69.98
35307;BME280;21420;52.196;21.416;2023-03-26T04:03:47;98897.95;;;5.98;70.02
35307;BME280;21420;52.196;21.416;2023-03-26T04:06:14;98896.91;;;5.99;69.96
35307;BME280;21420;52.196;21.416;2023-03-26T04:08:48;98896.18;;;6.01;70.04
35307;BME280;21420;52.196;21.416;2023-03-26T04:11:16;98899.83;;;6.03;70.08
35307;BME280;21420;52.196;21.416;2023-03-26T04:14:15;98891.86;;;6.07;70.00
35307;BME280;21420;52.196;21.416;2023-03-26T04:17:02;98886.76;;;6.10;70.07
35307;BME280;21420;52.196;21.416;2023-03-26T04:19:33;98889.48;;;6.12;70.08
35307;BME280;21420;52.196;21.416;2023-03-26T04:22:01;98891.66;;;6.13;69.99
35307;BME280;21420;52.196;21.416;2023-03-26T04:24:32;98891.17;;;6.12;70.00
35307;BME280;21420;52.196;21.416;2023-03-26T04:27:22;98887.70;;;6.11;69.96
35307;BME280;21420;52.196;21.416;2023-03-26T04:29:56;98888.77;;;6.10;69.94
35307;BME280;21420;52.196;21.416;2023-03-26T04:32:27;98887.94;;;6.10;70.02
35307;BME280;21420;52.196;21.416;2023-03-26T04:35:01;98881.84;;;6.09;70.07
35307;BME280;21420;52.196;21.416;2023-03-26T04:37:32;98882.25;;;6.10;70.13
35307;BME280;21420;52.196;21.416;2023-03-26T04:40:26;98883.92;;;6.11;70.11
35307;BME280;21420;52.196;21.416;2023-03-26T04:43:19;98880.41;;;6.13;70.19
35307;BME280;21420;52.196;21.416;2023-03-26T04:46:02;98884.20;;;6.17;70.12
35307;BME280;21420;52.196;21.416;2023-03-26T04:48:35;98884.90;;;6.21;70.17
35307;BME280;21420;52.196;21.416;2023-03-26T04:51:06;98884.54;;;6.24;70.18
35307;BME280;21420;52.196;21.416;2023-03-26T04:53:34;98882.52;;;6.26;70.12
35307;BME280;21420;52.196;21.416;2023-03-26T04:59:07;98890.30;;;6.32;70.21
35307;BME280;21420;52.196;21.416;2023-03-26T05:01:37;98887.33;;;6.34;70.16
35307;BME280;21420;52.196;21.416;2023-03-26T05:04:06;98886.70;;;6.37;70.13
35307;BME280;21420;52.196;21.416;2023-03-26T05:06:34;98888.55;;;6.39;70.09
35307;BME280;21420;52.196;21.416;2023-03-26T05:09:09;98884.65;;;6.41;70.10
35307;BME280;21420;52.196;21.416;2023-03-26T05:12:02;98888.95;;;6.44;70.15
35307;BME280;21420;52.196;21.416;2023-03-26T05:14:34;98890.66;;;6.47;70.15
35307;BME280;21420;52.196;21.416;2023-03-26T05:17:05;98884.60;;;6.50;70.19
35307;BME280;21420;52.196;21.416;2023-03-26T05:19:37;98884.55;;;6.53;70.12
35307;BME280;21420;52.196;21.416;2023-03-26T05:22:04;98884.45;;;6.55;70.18
35307;BME280;21420;52.196;21.416;2023-03-26T05:24:32;98889.73;;;6.58;70.13
35307;BME280;21420;52.196;21.416;2023-03-26T05:26:59;98884.26;;;6.60;70.12
35307;BME280;21420;52.196;21.416;2023-03-26T05:29:26;98887.15;;;6.63;70.21
35307;BME280;21420;52.196;21.416;2023-03-26T05:31:54;98885.40;;;6.64;70.12
35307;BME280;21420;52.196;21.416;2023-03-26T05:34:21;98885.34;;;6.65;70.12
35307;BME280;21420;52.196;21.416;2023-03-26T05:36:52;98880.90;;;6.67;70.05
35307;BME280;21420;52.196;21.416;2023-03-26T05:39:32;98874.70;;;6.71;70.15
35307;BME280;21420;52.196;21.416;2023-03-26T05:42:18;98874.39;;;6.76;70.24
35307;BME280;21420;52.196;21.416;2023-03-26T05:45:00;98879.17;;;6.84;70.26
35307;BME280;21420;52.196;21.416;2023-03-26T05:47:27;98879.48;;;6.89;70.18
35307;BME280;21420;52.196;21.416;2023-03-26T05:49:55;98878.02;;;6.96;70.30
35307;BME280;21420;52.196;21.416;2023-03-26T05:52:22;98880.52;;;7.02;70.24
35307;BME280;21420;52.196;21.416;2023-03-26T05:55:07;98881.04;;;7.07;70.12
35307;BME280;21420;52.196;21.416;2023-03-26T05:58:01;98878.00;;;7.12;70.19
35307;BME280;21420;52.196;21.416;2023-03-26T06:00:47;98880.20;;;7.16;70.20
35307;BME280;21420;52.196;21.416;2023-03-26T06:03:17;98876.30;;;7.19;70.16
35307;BME280;21420;52.196;21.416;2023-03-26T06:06:10;98877.39;;;7.22;70.14
35307;BME280;21420;52.196;21.416;2023-03-26T06:08:47;98877.63;;;7.28;70.16
35307;BME280;21420;52.196;21.416;2023-03-26T06:11:29;98876.83;;;7.31;70.07
35307;BME280;21420;52.196;21.416;2023-03-26T06:13:58;98875.22;;;7.34;70.07
35307;BME280;21420;52.196;21.416;2023-03-26T06:16:25;98877.67;;;7.36;70.00
35307;BME280;21420;52.196;21.416;2023-03-26T06:19:17;98875.17;;;7.42;70.19
35307;BME280;21420;52.196;21.416;2023-03-26T06:21:50;98877.63;;;7.50;70.14
35307;BME280;21420;52.196;21.416;2023-03-26T06:24:37;98877.67;;;7.55;70.00
35307;BME280;21420;52.196;21.416;2023-03-26T06:27:38;98880.09;;;7.58;70.10
35307;BME280;21420;52.196;21.416;2023-03-26T06:30:23;98882.02;;;7.61;70.02
35307;BME280;21420;52.196;21.416;2023-03-26T06:33:03;98885.30;;;7.68;70.07
35307;BME280;21420;52.196;21.416;2023-03-26T06:35:36;98886.36;;;7.86;70.18
35307;BME280;21420;52.196;21.416;2023-03-26T06:38:04;98885.35;;;8.04;70.15
35307;BME280;21420;52.196;21.416;2023-03-26T06:40:33;98888.09;;;8.11;70.06
35307;BME280;21420;52.196;21.416;2023-03-26T06:43:20;98887.66;;;8.16;69.91
35307;BME280;21420;52.196;21.416;2023-03-26T06:46:20;98880.08;;;8.22;69.88
35307;BME280;21420;52.196;21.416;2023-03-26T06:48:52;98878.61;;;8.27;69.73
35307;BME280;21420;52.196;21.416;2023-03-26T06:51:37;98878.53;;;8.27;69.50
35307;BME280;21420;52.196;21.416;2023-03-26T06:54:25;98877.08;;;8.24;69.50
35307;BME280;21420;52.196;21.416;2023-03-26T06:56:58;98878.58;;;8.21;69.44
35307;BME280;21420;52.196;21.416;2023-03-26T06:59:48;98882.27;;;8.16;69.36
35307;BME280;21420;52.196;21.416;2023-03-26T07:02:36;98884.58;;;8.07;69.31
35307;BME280;21420;52.196;21.416;2023-03-26T07:05:21;98885.52;;;7.98;69.15
35307;BME280;21420;52.196;21.416;2023-03-26T07:08:18;98887.23;;;7.93;69.29
35307;BME280;21420;52.196;21.416;2023-03-26T07:11:03;98890.30;;;7.91;69.21
35307;BME280;21420;52.196;21.416;2023-03-26T07:14:03;98887.52;;;7.87;69.15
35307;BME280;21420;52.196;21.416;2023-03-26T07:16:59;98889.69;;;7.79;69.16
35307;BME280;21420;52.196;21.416;2023-03-26T07:19:49;98889.13;;;7.75;69.20
35307;BME280;21420;52.196;21.416;2023-03-26T07:22:23;98889.55;;;7.73;69.27
35307;BME280;21420;52.196;21.416;2023-03-26T07:25:03;98892.15;;;7.65;69.16
35307;BME280;21420;52.196;21.416;2023-03-26T07:31:40;98888.85;;;7.48;69.22
35307;BME280;21420;52.196;21.416;2023-03-26T07:34:49;98889.99;;;7.37;69.12
35307;BME280;21420;52.196;21.416;2023-03-26T07:41:13;98892.58;;;7.47;69.55
35307;BME280;21420;52.196;21.416;2023-03-26T07:44:24;98888.94;;;7.64;69.67
35307;BME280;21420;52.196;21.416;2023-03-26T07:50:20;98882.05;;;8.41;70.34
35307;BME280;21420;52.196;21.416;2023-03-26T07:53:08;98879.25;;;9.17;70.67
35307;BME280;21420;52.196;21.416;2023-03-26T07:56:20;98873.04;;;9.69;70.36
35307;BME280;21420;52.196;21.416;2023-03-26T08:06:51;98865.54;;;11.35;69.71
35307;BME280;21420;52.196;21.416;2023-03-26T08:15:37;98867.60;;;12.46;68.55
35307;BME280;21420;52.196;21.416;2023-03-26T08:21:18;98859.33;;;11.50;67.61
35307;BME280;21420;52.196;21.416;2023-03-26T08:23:59;98856.59;;;11.18;67.80
35307;BME280;21420;52.196;21.416;2023-03-26T08:31:47;98854.63;;;10.64;68.19
35307;BME280;21420;52.196;21.416;2023-03-26T08:34:15;98852.02;;;10.50;68.03
35307;BME280;21420;52.196;21.416;2023-03-26T08:36:42;98852.61;;;10.48;68.07
35307;BME280;21420;52.196;21.416;2023-03-26T08:39:09;98852.34;;;10.50;68.09
35307;BME280;21420;52.196;21.416;2023-03-26T08:47:55;98858.72;;;10.29;68.11
35307;BME280;21420;52.196;21.416;2023-03-26T08:50:19;98856.56;;;10.32;68.00
35307;BME280;21420;52.196;21.416;2023-03-26T09:09:51;98851.23;;;10.43;67.51
35307;BME280;21420;52.196;21.416;2023-03-26T09:20:35;98847.46;;;11.35;68.07
35307;BME280;21420;52.196;21.416;2023-03-26T09:26:25;98836.72;;;11.94;67.88
35307;BME280;21420;52.196;21.416;2023-03-26T09:40:12;98823.17;;;12.37;67.02
35307;BME280;21420;52.196;21.416;2023-03-26T09:42:45;98818.54;;;12.04;66.53
35307;BME280;21420;52.196;21.416;2023-03-26T09:54:09;98826.52;;;10.84;66.63
35307;BME280;21420;52.196;21.416;2023-03-26T09:59:51;98821.19;;;10.90;67.54
35307;BME280;21420;52.196;21.416;2023-03-26T10:03:37;98822.26;;;11.20;67.58
35307;BME280;21420;52.196;21.416;2023-03-26T10:39:24;98792.52;;;11.11;65.97
35307;BME280;21420;52.196;21.416;2023-03-26T10:45:11;98790.03;;;12.12;67.20
35307;BME280;21420;52.196;21.416;2023-03-26T10:53:42;98795.48;;;11.90;65.68
35307;BME280;21420;52.196;21.416;2023-03-26T10:56:26;98795.85;;;11.66;65.62
35307;BME280;21420;52.196;21.416;2023-03-26T10:58:55;98806.20;;;11.18;64.93
35307;BME280;21420;52.196;21.416;2023-03-26T11:10:17;98782.52;;;14.98;67.89
35307;BME280;21420;52.196;21.416;2023-03-26T11:12:55;98781.88;;;15.55;66.33
35307;BME280;21420;52.196;21.416;2023-03-26T11:15:36;98779.35;;;14.94;64.38
35307;BME280;21420;52.196;21.416;2023-03-26T11:18:19;98784.15;;;14.30;64.08
35307;BME280;21420;52.196;21.416;2023-03-26T11:26:57;98794.38;;;12.88;63.84
35307;BME280;21420;52.196;21.416;2023-03-26T11:29:55;98807.64;;;12.38;63.68
35307;BME280;21420;52.196;21.416;2023-03-26T11:32:40;98801.67;;;11.91;63.95
35307;BME280;21420;52.196;21.416;2023-03-26T11:35:31;98800.89;;;11.69;64.32
35307;BME280;21420;52.196;21.416;2023-03-26T11:38:20;98799.23;;;12.03;65.19
35307;BME280;21420;52.196;21.416;2023-03-26T11:40:51;98794.64;;;12.41;65.50
35307;BME280;21420;52.196;21.416;2023-03-26T11:43:47;98792.59;;;12.62;65.72
35307;BME280;21420;52.196;21.416;2023-03-26T11:46:17;98792.45;;;12.67;65.19
35307;BME280;21420;52.196;21.416;2023-03-26T11:48:52;98793.63;;;12.63;64.97
35307;BME280;21420;52.196;21.416;2023-03-26T11:51:31;98792.23;;;12.48;64.33
35307;BME280;21420;52.196;21.416;2023-03-26T11:54:00;98786.12;;;12.28;64.40
35307;BME280;21420;52.196;21.416;2023-03-26T11:56:34;98796.80;;;12.13;64.38
35307;BME280;21420;52.196;21.416;2023-03-26T11:59:20;98786.83;;;11.86;63.92
35307;BME280;21420;52.196;21.416;2023-03-26T12:04:26;98784.52;;;11.81;64.51
35307;BME280;21420;52.196;21.416;2023-03-26T12:07:06;98784.57;;;11.87;64.51
35307;BME280;21420;52.196;21.416;2023-03-26T12:09:35;98786.07;;;11.80;64.33
35307;BME280;21420;52.196;21.416;2023-03-26T12:12:03;98778.54;;;11.78;64.41
35307;BME280;21420;52.196;21.416;2023-03-26T12:14:33;98780.80;;;11.63;64.33
35307;BME280;21420;52.196;21.416;2023-03-26T12:17:10;98774.60;;;11.51;64.07
35307;BME280;21420;52.196;21.416;2023-03-26T12:19:40;98775.61;;;11.49;64.56
35307;BME280;21420;52.196;21.416;2023-03-26T12:22:27;98778.41;;;11.81;65.41
35307;BME280;21420;52.196;21.416;2023-03-26T12:25:15;98778.68;;;12.32;65.79
35307;BME280;21420;52.196;21.416;2023-03-26T12:30:36;98774.77;;;12.30;64.41
35307;BME280;21420;52.196;21.416;2023-03-26T12:33:24;98773.60;;;11.99;63.80
35307;BME280;21420;52.196;21.416;2023-03-26T12:35:55;98770.92;;;11.65;63.48
35307;BME280;21420;52.196;21.416;2023-03-26T12:38:32;98769.38;;;11.44;63.50
35307;BME280;21420;52.196;21.416;2023-03-26T12:44:25;98767.20;;;11.35;64.16
35307;BME280;21420;52.196;21.416;2023-03-26T12:47:24;98760.42;;;11.39;64.19
35307;BME280;21420;52.196;21.416;2023-03-26T12:50:14;98766.79;;;11.42;63.96
35307;BME280;21420;52.196;21.416;2023-03-26T12:52:58;98766.77;;;11.31;63.85
35307;BME280;21420;52.196;21.416;2023-03-26T13:03:52;98770.05;;;11.10;64.50
35307;BME280;21420;52.196;21.416;2023-03-26T13:15:01;98772.04;;;12.00;63.84
35307;BME280;21420;52.196;21.416;2023-03-26T13:32:01;98758.67;;;11.94;62.65
35307;BME280;21420;52.196;21.416;2023-03-26T13:34:58;98768.32;;;11.61;62.53
35307;BME280;21420;52.196;21.416;2023-03-26T13:40:19;98781.83;;;11.04;62.55
35307;BME280;21420;52.196;21.416;2023-03-26T13:43:09;98802.39;;;10.72;62.45
35307;BME280;21420;52.196;21.416;2023-03-26T13:49:18;98810.58;;;10.01;62.43
35307;BME280;21420;52.196;21.416;2023-03-26T13:56:50;98786.66;;;10.97;64.78
35307;BME280;21420;52.196;21.416;2023-03-26T13:59:27;98787.70;;;11.55;64.72
35307;BME280;21420;52.196;21.416;2023-03-26T14:02:02;98784.98;;;12.07;64.73
35307;BME280;21420;52.196;21.416;2023-03-26T14:04:42;98783.23;;;12.53;64.40
35307;BME280;21420;52.196;21.416;2023-03-26T14:07:14;98779.61;;;12.79;64.11
35307;BME280;21420;52.196;21.416;2023-03-26T14:09:59;98779.25;;;12.93;64.06
35307;BME280;21420;52.196;21.416;2023-03-26T14:12:39;98777.85;;;13.11;63.73
35307;BME280;21420;52.196;21.416;2023-03-26T14:15:43;98784.21;;;13.14;63.36
35307;BME280;21420;52.196;21.416;2023-03-26T14:18:39;98777.46;;;13.09;63.19
35307;BME280;21420;52.196;21.416;2023-03-26T14:21:34;98768.75;;;13.06;63.22
35307;BME280;21420;52.196;21.416;2023-03-26T14:32:27;98773.72;;;12.25;62.38
35307;BME280;21420;52.196;21.416;2023-03-26T14:40:38;98768.86;;;11.84;62.14
35307;BME280;21420;52.196;21.416;2023-03-26T14:54:16;98769.84;;;11.22;62.63
35307;BME280;21420;52.196;21.416;2023-03-26T15:10:35;98757.34;;;11.45;62.47
35307;BME280;21420;52.196;21.416;2023-03-26T15:21:40;98764.83;;;10.96;62.21
35307;BME280;21420;52.196;21.416;2023-03-26T15:27:22;98775.52;;;11.02;62.57
35307;BME280;21420;52.196;21.416;2023-03-26T15:33:27;98771.13;;;11.16;62.44
35307;BME280;21420;52.196;21.416;2023-03-26T15:36:35;98771.51;;;11.15;62.45
35307;BME280;21420;52.196;21.416;2023-03-26T15:40:20;98777.29;;;11.13;62.69
35307;BME280;21420;52.196;21.416;2023-03-26T15:42:32;98777.05;;;11.14;62.46
35307;BME280;21420;52.196;21.416;2023-03-26T16:04:28;98790.04;;;10.96;62.35
35307;BME280;21420;52.196;21.416;2023-03-26T16:12:27;98801.23;;;10.90;62.25
35307;BME280;21420;52.196;21.416;2023-03-26T16:23:26;98817.67;;;10.30;61.76
35307;BME280;21420;52.196;21.416;2023-03-26T16:36:31;98821.34;;;9.43;61.43
35307;BME280;21420;52.196;21.416;2023-03-26T16:44:46;98830.25;;;8.99;61.56
35307;BME280;21420;52.196;21.416;2023-03-26T16:47:36;98832.70;;;8.83;61.47
35307;BME280;21420;52.196;21.416;2023-03-26T16:50:25;98835.59;;;8.71;61.59
35307;BME280;21420;52.196;21.416;2023-03-26T16:53:09;98836.67;;;8.59;61.61
35307;BME280;21420;52.196;21.416;2023-03-26T16:55:45;98834.73;;;8.51;61.84
35307;BME280;21420;52.196;21.416;2023-03-26T17:06:59;98839.30;;;8.32;62.05
35307;BME280;21420;52.196;21.416;2023-03-26T17:22:51;98855.10;;;7.82;62.07
35307;BME280;21420;52.196;21.416;2023-03-26T17:33:37;98860.20;;;7.57;62.54
35307;BME280;21420;52.196;21.416;2023-03-26T17:41:06;98861.40;;;7.52;62.56
35307;BME280;21420;52.196;21.416;2023-03-26T17:51:55;98859.96;;;7.31;62.54
35307;BME280;21420;52.196;21.416;2023-03-26T17:54:37;98861.42;;;7.24;62.61
35307;BME280;21420;52.196;21.416;2023-03-26T17:57:38;98863.70;;;7.20;62.59
35307;BME280;21420;52.196;21.416;2023-03-26T18:00:20;98863.33;;;7.14;62.72
35307;BME280;21420;52.196;21.416;2023-03-26T18:02:53;98860.19;;;7.09;62.79
35307;BME280;21420;52.196;21.416;2023-03-26T18:05:26;98858.05;;;7.05;62.72
35307;BME280;21420;52.196;21.416;2023-03-26T18:10:57;98854.04;;;6.97;62.84
35307;BME280;21420;52.196;21.416;2023-03-26T18:16:38;98851.92;;;6.91;63.06
35307;BME280;21420;52.196;21.416;2023-03-26T18:19:12;98853.97;;;6.89;62.98
35307;BME280;21420;52.196;21.416;2023-03-26T18:21:53;98852.31;;;6.86;63.04
35307;BME280;21420;52.196;21.416;2023-03-26T18:24:32;98856.17;;;6.81;63.00
35307;BME280;21420;52.196;21.416;2023-03-26T18:27:10;98857.61;;;6.77;62.99
35307;BME280;21420;52.196;21.416;2023-03-26T18:29:43;98857.35;;;6.73;63.12
35307;BME280;21420;52.196;21.416;2023-03-26T18:34:44;98857.65;;;6.67;63.22
35307;BME280;21420;52.196;21.416;2023-03-26T18:37:14;98860.73;;;6.63;63.12
35307;BME280;21420;52.196;21.416;2023-03-26T18:40:22;98863.20;;;6.60;63.20
35307;BME280;21420;52.196;21.416;2023-03-26T18:42:51;98861.48;;;6.54;63.20
35307;BME280;21420;52.196;21.416;2023-03-26T18:47:55;98864.19;;;6.45;63.35
35307;BME280;21420;52.196;21.416;2023-03-26T18:50:28;98865.35;;;6.34;63.17
35307;BME280;21420;52.196;21.416;2023-03-26T18:52:58;98863.92;;;6.23;63.08
35307;BME280;21420;52.196;21.416;2023-03-26T18:55:27;98862.73;;;6.11;62.95
35307;BME280;21420;52.196;21.416;2023-03-26T18:57:55;98861.48;;;5.98;62.92
35307;BME280;21420;52.196;21.416;2023-03-26T19:00:24;98858.73;;;5.90;63.18
35307;BME280;21420;52.196;21.416;2023-03-26T19:03:01;98854.97;;;5.84;63.28
35307;BME280;21420;52.196;21.416;2023-03-26T19:05:32;98849.31;;;5.77;63.24
35307;BME280;21420;52.196;21.416;2023-03-26T19:08:01;98846.90;;;5.71;63.34
35307;BME280;21420;52.196;21.416;2023-03-26T19:10:30;98847.26;;;5.65;63.30
35307;BME280;21420;52.196;21.416;2023-03-26T19:13:02;98846.05;;;5.59;63.40
35307;BME280;21420;52.196;21.416;2023-03-26T19:15:31;98839.15;;;5.52;63.51
35307;BME280;21420;52.196;21.416;2023-03-26T19:18:05;98832.23;;;5.47;63.50
35307;BME280;21420;52.196;21.416;2023-03-26T19:20:42;98829.77;;;5.40;63.49
35307;BME280;21420;52.196;21.416;2023-03-26T19:23:15;98831.36;;;5.32;63.54
35307;BME280;21420;52.196;21.416;2023-03-26T19:25:46;98828.23;;;5.26;63.63
35307;BME280;21420;52.196;21.416;2023-03-26T19:28:17;98826.77;;;5.19;63.51
35307;BME280;21420;52.196;21.416;2023-03-26T19:30:45;98821.31;;;5.09;63.52
35307;BME280;21420;52.196;21.416;2023-03-26T19:33:17;98815.73;;;5.00;63.52
35307;BME280;21420;52.196;21.416;2023-03-26T19:38:51;98810.98;;;4.90;63.80
35307;BME280;21420;52.196;21.416;2023-03-26T19:41:43;98806.12;;;4.84;63.82
35307;BME280;21420;52.196;21.416;2023-03-26T19:44:31;98802.71;;;4.76;63.74
35307;BME280;21420;52.196;21.416;2023-03-26T19:47:06;98805.33;;;4.71;63.76
35307;BME280;21420;52.196;21.416;2023-03-26T19:49:54;98804.73;;;4.68;63.75
35307;BME280;21420;52.196;21.416;2023-03-26T19:52:40;98803.89;;;4.61;63.76
35307;BME280;21420;52.196;21.416;2023-03-26T19:57:36;98799.40;;;4.50;63.98
35307;BME280;21420;52.196;21.416;2023-03-26T20:00:05;98803.36;;;4.44;63.78
35307;BME280;21420;52.196;21.416;2023-03-26T20:02:40;98804.52;;;4.35;63.76
35307;BME280;21420;52.196;21.416;2023-03-26T20:05:18;98804.27;;;4.28;63.88
35307;BME280;21420;52.196;21.416;2023-03-26T20:07:49;98799.91;;;4.21;63.91
35307;BME280;21420;52.196;21.416;2023-03-26T20:10:17;98800.77;;;4.17;64.02
35307;BME280;21420;52.196;21.416;2023-03-26T20:12:44;98797.66;;;4.16;64.16
35307;BME280;21420;52.196;21.416;2023-03-26T20:15:23;98792.81;;;4.15;64.14
35307;BME280;21420;52.196;21.416;2023-03-26T20:17:51;98786.59;;;4.14;64.30
35307;BME280;21420;52.196;21.416;2023-03-26T20:20:21;98781.52;;;4.15;64.45
35307;BME280;21420;52.196;21.416;2023-03-26T20:22:53;98775.99;;;4.15;64.36